sensor_id;sensor_type;location;lat;lon;timestamp;P1;durP1;ratioP1;P2;durP2;ratioP2
64667;SDS011;51077;42.716;23.344;2024-03-23T00:55:55;65.60;;;31.77;;
64667;SDS011;51077;42.716;23.344;2024-03-23T00:58:21;63.73;;;31.37;;
64667;SDS011;51077;42.716;23.344;2024-03-23T01:00:46;59.13;;;30.17;;
64667;SDS011;51077;42.716;23.344;2024-03-23T01:03:11;60.93;;;29.50;;
64667;SDS011;51077;42.716;23.344;2024-03-23T01:05:37;61.57;;;29.27;;
64667;SDS011;51077;42.716;23.344;2024-03-23T01:08:02;55.07;;;28.10;;
64667;SDS011;51077;42.716;23.344;2024-03-23T01:10:28;59.67;;;27.40;;
64667;SDS011;51077;42.716;23.344;2024-03-23T01:12:53;57.93;;;27.80;;
64667;SDS011;51077;42.716;23.344;2024-03-23T01:15:18;52.23;;;26.37;;
64667;SDS011;51077;42.716;23.344;2024-03-23T01:17:44;51.00;;;25.03;;
64667;SDS011;51077;42.716;23.344;2024-03-23T01:20:09;49.50;;;24.43;;
64667;SDS011;51077;42.716;23.344;2024-03-23T01:22:35;48.87;;;24.10;;
64667;SDS011;51077;42.716;23.344;2024-03-23T01:25:00;51.00;;;25.37;;
64667;SDS011;51077;42.716;23.344;2024-03-23T01:27:26;43.93;;;22.60;;
64667;SDS011;51077;42.716;23.344;2024-03-23T01:29:51;46.23;;;23.57;;
64667;SDS011;51077;42.716;23.344;2024-03-23T01:32:17;43.83;;;23.53;;
64667;SDS011;51077;42.716;23.344;2024-03-23T01:34:43;43.55;;;21.80;;
64667;SDS011;51077;42.716;23.344;2024-03-23T01:37:09;48.17;;;22.30;;
64667;SDS011;51077;42.716;23.344;2024-03-23T01:39:34;42.20;;;21.60;;
64667;SDS011;51077;42.716;23.344;2024-03-23T01:41:59;43.57;;;20.67;;
64667;SDS011;51077;42.716;23.344;2024-03-23T01:44:25;40.40;;;19.53;;
64667;SDS011;51077;42.716;23.344;2024-03-23T01:46:50;39.23;;;19.93;;
64667;SDS011;51077;42.716;23.344;2024-03-23T01:49:16;38.33;;;20.05;;
64667;SDS011;51077;42.716;23.344;2024-03-23T01:51:42;37.97;;;19.45;;
64667;SDS011;51077;42.716;23.344;2024-03-23T01:54:08;36.45;;;17.92;;
64667;SDS011;51077;42.716;23.344;2024-03-23T01:56:34;38.95;;;18.60;;
64667;SDS011;51077;42.716;23.344;2024-03-23T01:59:06;31.40;;;17.67;;
64667;SDS011;51077;42.716;23.344;2024-03-23T02:01:32;36.00;;;17.73;;
64667;SDS011;51077;42.716;23.344;2024-03-23T02:03:58;29.90;;;15.63;;
64667;SDS011;51077;42.716;23.344;2024-03-23T02:06:24;34.40;;;17.37;;
64667;SDS011;51077;42.716;23.344;2024-03-23T02:08:49;34.75;;;16.85;;
64667;SDS011;51077;42.716;23.344;2024-03-23T02:11:15;30.87;;;16.17;;
64667;SDS011;51077;42.716;23.344;2024-03-23T02:13:40;33.30;;;15.77;;
64667;SDS011;51077;42.716;23.344;2024-03-23T02:16:06;28.13;;;14.77;;
64667;SDS011;51077;42.716;23.344;2024-03-23T02:18:32;32.27;;;15.83;;
64667;SDS011;51077;42.716;23.344;2024-03-23T02:20:57;29.85;;;15.25;;
64667;SDS011;51077;42.716;23.344;2024-03-23T02:23:23;28.27;;;14.87;;
64667;SDS011;51077;42.716;23.344;2024-03-23T02:25:49;24.77;;;13.90;;
64667;SDS011;51077;42.716;23.344;2024-03-23T02:28:15;27.00;;;14.20;;
64667;SDS011;51077;42.716;23.344;2024-03-23T02:30:40;27.37;;;13.60;;
64667;SDS011;51077;42.716;23.344;2024-03-23T02:33:05;26.37;;;14.00;;
64667;SDS011;51077;42.716;23.344;2024-03-23T02:35:31;24.17;;;13.13;;
64667;SDS011;51077;42.716;23.344;2024-03-23T02:37:56;25.23;;;13.17;;
64667;SDS011;51077;42.716;23.344;2024-03-23T02:40:22;24.40;;;13.23;;
64667;SDS011;51077;42.716;23.344;2024-03-23T02:42:48;20.45;;;11.55;;
64667;SDS011;51077;42.716;23.344;2024-03-23T02:45:13;24.10;;;11.83;;
64667;SDS011;51077;42.716;23.344;2024-03-23T02:47:39;21.70;;;12.27;;
64667;SDS011;51077;42.716;23.344;2024-03-23T02:50:04;23.13;;;12.37;;
64667;SDS011;51077;42.716;23.344;2024-03-23T02:52:30;20.17;;;11.73;;
64667;SDS011;51077;42.716;23.344;2024-03-23T02:54:56;20.53;;;11.23;;
64667;SDS011;51077;42.716;23.344;2024-03-23T02:57:21;20.27;;;12.17;;
64667;SDS011;51077;42.716;23.344;2024-03-23T02:59:47;19.23;;;11.20;;
64667;SDS011;51077;42.716;23.344;2024-03-23T03:02:13;19.83;;;11.17;;
64667;SDS011;51077;42.716;23.344;2024-03-23T03:04:38;21.85;;;11.50;;
64667;SDS011;51077;42.716;23.344;2024-03-23T03:07:04;20.57;;;10.57;;
64667;SDS011;51077;42.716;23.344;2024-03-23T03:09:29;20.30;;;11.00;;
64667;SDS011;51077;42.716;23.344;2024-03-23T03:11:55;17.93;;;10.70;;
64667;SDS011;51077;42.716;23.344;2024-03-23T03:14:20;20.73;;;9.97;;
64667;SDS011;51077;42.716;23.344;2024-03-23T03:16:45;18.10;;;9.93;;
64667;SDS011;51077;42.716;23.344;2024-03-23T03:19:11;18.73;;;10.57;;
64667;SDS011;51077;42.716;23.344;2024-03-23T03:21:36;16.70;;;9.67;;
64667;SDS011;51077;42.716;23.344;2024-03-23T03:24:02;15.23;;;9.60;;
64667;SDS011;51077;42.716;23.344;2024-03-23T03:26:28;15.77;;;9.48;;
64667;SDS011;51077;42.716;23.344;2024-03-23T03:28:53;18.03;;;10.77;;
64667;SDS011;51077;42.716;23.344;2024-03-23T03:31:19;17.17;;;9.20;;
64667;SDS011;51077;42.716;23.344;2024-03-23T03:33:45;16.13;;;9.18;;
64667;SDS011;51077;42.716;23.344;2024-03-23T03:36:11;14.87;;;8.97;;
64667;SDS011;51077;42.716;23.344;2024-03-23T03:38:36;15.47;;;9.20;;
64667;SDS011;51077;42.716;23.344;2024-03-23T03:41:03;15.43;;;9.20;;
64667;SDS011;51077;42.716;23.344;2024-03-23T03:43:29;14.40;;;8.75;;
64667;SDS011;51077;42.716;23.344;2024-03-23T03:45:55;14.70;;;8.20;;
64667;SDS011;51077;42.716;23.344;2024-03-23T03:48:21;16.23;;;9.30;;
64667;SDS011;51077;42.716;23.344;2024-03-23T03:50:47;14.90;;;8.37;;
64667;SDS011;51077;42.716;23.344;2024-03-23T03:53:12;15.33;;;8.63;;
64667;SDS011;51077;42.716;23.344;2024-03-23T03:55:38;14.63;;;8.63;;
64667;SDS011;51077;42.716;23.344;2024-03-23T03:58:03;13.63;;;8.50;;
64667;SDS011;51077;42.716;23.344;2024-03-23T04:00:29;14.55;;;8.52;;
64667;SDS011;51077;42.716;23.344;2024-03-23T04:02:56;13.48;;;7.88;;
64667;SDS011;51077;42.716;23.344;2024-03-23T04:05:22;13.88;;;8.05;;
64667;SDS011;51077;42.716;23.344;2024-03-23T04:07:47;14.57;;;7.57;;
64667;SDS011;51077;42.716;23.344;2024-03-23T04:10:12;13.93;;;8.13;;
64667;SDS011;51077;42.716;23.344;2024-03-23T04:12:38;18.03;;;8.67;;
64667;SDS011;51077;42.716;23.344;2024-03-23T04:15:05;13.50;;;7.95;;
64667;SDS011;51077;42.716;23.344;2024-03-23T04:17:31;15.20;;;9.17;;
64667;SDS011;51077;42.716;23.344;2024-03-23T04:19:58;14.98;;;8.85;;
64667;SDS011;51077;42.716;23.344;2024-03-23T04:22:23;17.83;;;9.27;;
64667;SDS011;51077;42.716;23.344;2024-03-23T04:24:55;14.75;;;9.57;;
64667;SDS011;51077;42.716;23.344;2024-03-23T04:27:23;18.02;;;10.20;;
64667;SDS011;51077;42.716;23.344;2024-03-23T04:29:49;15.38;;;9.25;;
64667;SDS011;51077;42.716;23.344;2024-03-23T04:32:15;14.38;;;9.23;;
64667;SDS011;51077;42.716;23.344;2024-03-23T04:34:41;16.48;;;9.18;;
64667;SDS011;51077;42.716;23.344;2024-03-23T04:37:06;15.88;;;9.38;;
64667;SDS011;51077;42.716;23.344;2024-03-23T04:39:32;17.50;;;8.67;;
64667;SDS011;51077;42.716;23.344;2024-03-23T04:41:58;15.70;;;9.53;;
64667;SDS011;51077;42.716;23.344;2024-03-23T04:44:23;13.97;;;8.10;;
64667;SDS011;51077;42.716;23.344;2024-03-23T04:46:49;15.27;;;9.10;;
64667;SDS011;51077;42.716;23.344;2024-03-23T04:49:14;15.73;;;9.23;;
64667;SDS011;51077;42.716;23.344;2024-03-23T04:51:40;13.73;;;9.13;;
64667;SDS011;51077;42.716;23.344;2024-03-23T04:54:10;13.93;;;8.43;;
64667;SDS011;51077;42.716;23.344;2024-03-23T04:56:36;17.50;;;9.13;;
64667;SDS011;51077;42.716;23.344;2024-03-23T04:59:02;14.37;;;8.87;;
64667;SDS011;51077;42.716;23.344;2024-03-23T05:01:29;14.25;;;8.85;;
64667;SDS011;51077;42.716;23.344;2024-03-23T05:03:56;12.90;;;8.07;;
64667;SDS011;51077;42.716;23.344;2024-03-23T05:06:22;14.57;;;8.02;;
64667;SDS011;51077;42.716;23.344;2024-03-23T05:08:47;13.73;;;8.30;;
64667;SDS011;51077;42.716;23.344;2024-03-23T05:11:13;14.47;;;8.33;;
64667;SDS011;51077;42.716;23.344;2024-03-23T05:13:38;12.43;;;8.20;;
64667;SDS011;51077;42.716;23.344;2024-03-23T05:16:04;13.37;;;7.70;;
64667;SDS011;51077;42.716;23.344;2024-03-23T05:18:29;15.53;;;7.77;;
64667;SDS011;51077;42.716;23.344;2024-03-23T05:20:58;13.70;;;7.90;;
64667;SDS011;51077;42.716;23.344;2024-03-23T05:23:24;12.32;;;8.10;;
64667;SDS011;51077;42.716;23.344;2024-03-23T05:25:50;11.13;;;7.53;;
64667;SDS011;51077;42.716;23.344;2024-03-23T05:28:19;12.90;;;7.68;;
64667;SDS011;51077;42.716;23.344;2024-03-23T05:30:52;13.90;;;8.82;;
64667;SDS011;51077;42.716;23.344;2024-03-23T05:33:18;13.57;;;7.80;;
64667;SDS011;51077;42.716;23.344;2024-03-23T05:35:44;14.95;;;8.88;;
64667;SDS011;51077;42.716;23.344;2024-03-23T05:38:10;13.80;;;8.33;;
64667;SDS011;51077;42.716;23.344;2024-03-23T05:40:35;13.83;;;8.07;;
64667;SDS011;51077;42.716;23.344;2024-03-23T05:43:02;14.05;;;8.95;;
64667;SDS011;51077;42.716;23.344;2024-03-23T05:45:28;17.38;;;8.95;;
64667;SDS011;51077;42.716;23.344;2024-03-23T05:47:54;12.77;;;8.40;;
64667;SDS011;51077;42.716;23.344;2024-03-23T05:50:21;14.18;;;8.38;;
64667;SDS011;51077;42.716;23.344;2024-03-23T05:52:47;15.77;;;8.70;;
64667;SDS011;51077;42.716;23.344;2024-03-23T05:55:12;14.10;;;8.53;;
64667;SDS011;51077;42.716;23.344;2024-03-23T05:57:38;14.40;;;8.40;;
64667;SDS011;51077;42.716;23.344;2024-03-23T06:00:04;13.05;;;8.52;;
64667;SDS011;51077;42.716;23.344;2024-03-23T06:02:35;14.60;;;8.63;;
64667;SDS011;51077;42.716;23.344;2024-03-23T06:05:00;13.60;;;8.73;;
64667;SDS011;51077;42.716;23.344;2024-03-23T06:07:27;14.13;;;9.05;;
64667;SDS011;51077;42.716;23.344;2024-03-23T06:09:52;13.93;;;9.23;;
64667;SDS011;51077;42.716;23.344;2024-03-23T06:12:18;12.37;;;8.77;;
64667;SDS011;51077;42.716;23.344;2024-03-23T06:14:43;14.07;;;8.53;;
64667;SDS011;51077;42.716;23.344;2024-03-23T06:17:09;17.63;;;8.97;;
64667;SDS011;51077;42.716;23.344;2024-03-23T06:19:34;12.33;;;8.63;;
64667;SDS011;51077;42.716;23.344;2024-03-23T06:22:00;15.90;;;8.73;;
64667;SDS011;51077;42.716;23.344;2024-03-23T06:24:25;14.43;;;9.10;;
64667;SDS011;51077;42.716;23.344;2024-03-23T06:26:50;15.23;;;9.63;;
64667;SDS011;51077;42.716;23.344;2024-03-23T06:29:16;14.17;;;8.97;;
64667;SDS011;51077;42.716;23.344;2024-03-23T06:31:41;13.97;;;9.40;;
64667;SDS011;51077;42.716;23.344;2024-03-23T06:34:07;15.67;;;9.43;;
64667;SDS011;51077;42.716;23.344;2024-03-23T06:36:32;14.80;;;8.97;;
64667;SDS011;51077;42.716;23.344;2024-03-23T06:38:58;15.70;;;9.60;;
64667;SDS011;51077;42.716;23.344;2024-03-23T06:41:23;18.00;;;9.47;;
64667;SDS011;51077;42.716;23.344;2024-03-23T06:43:49;16.65;;;9.80;;
64667;SDS011;51077;42.716;23.344;2024-03-23T06:46:15;14.37;;;10.17;;
64667;SDS011;51077;42.716;23.344;2024-03-23T06:48:40;16.93;;;10.43;;
64667;SDS011;51077;42.716;23.344;2024-03-23T06:51:05;15.33;;;10.40;;
64667;SDS011;51077;42.716;23.344;2024-03-23T06:53:31;16.98;;;9.50;;
64667;SDS011;51077;42.716;23.344;2024-03-23T06:55:57;17.97;;;10.67;;
64667;SDS011;51077;42.716;23.344;2024-03-23T06:58:24;17.80;;;9.90;;
64667;SDS011;51077;42.716;23.344;2024-03-23T07:00:49;15.52;;;9.75;;
64667;SDS011;51077;42.716;23.344;2024-03-23T07:03:16;16.63;;;10.07;;
64667;SDS011;51077;42.716;23.344;2024-03-23T07:05:42;16.23;;;10.20;;
64667;SDS011;51077;42.716;23.344;2024-03-23T07:08:08;14.60;;;9.60;;
64667;SDS011;51077;42.716;23.344;2024-03-23T07:10:33;16.50;;;9.97;;
64667;SDS011;51077;42.716;23.344;2024-03-23T07:12:59;16.77;;;10.10;;
64667;SDS011;51077;42.716;23.344;2024-03-23T07:15:24;17.70;;;10.20;;
64667;SDS011;51077;42.716;23.344;2024-03-23T07:17:50;16.47;;;9.90;;
64667;SDS011;51077;42.716;23.344;2024-03-23T07:20:15;15.10;;;9.90;;
64667;SDS011;51077;42.716;23.344;2024-03-23T07:22:41;16.13;;;9.17;;
64667;SDS011;51077;42.716;23.344;2024-03-23T07:25:07;15.40;;;9.77;;
64667;SDS011;51077;42.716;23.344;2024-03-23T07:27:32;18.70;;;11.03;;
64667;SDS011;51077;42.716;23.344;2024-03-23T07:29:58;19.67;;;11.32;;
64667;SDS011;51077;42.716;23.344;2024-03-23T07:32:24;19.33;;;11.93;;
64667;SDS011;51077;42.716;23.344;2024-03-23T07:34:51;16.88;;;10.35;;
64667;SDS011;51077;42.716;23.344;2024-03-23T07:37:17;14.93;;;9.93;;
64667;SDS011;51077;42.716;23.344;2024-03-23T07:39:42;15.80;;;9.77;;
64667;SDS011;51077;42.716;23.344;2024-03-23T07:42:08;14.63;;;9.77;;
64667;SDS011;51077;42.716;23.344;2024-03-23T07:44:33;14.13;;;9.80;;
64667;SDS011;51077;42.716;23.344;2024-03-23T07:47:03;16.08;;;10.15;;
64667;SDS011;51077;42.716;23.344;2024-03-23T07:49:28;18.00;;;10.48;;
64667;SDS011;51077;42.716;23.344;2024-03-23T07:51:54;20.00;;;9.57;;
64667;SDS011;51077;42.716;23.344;2024-03-23T07:54:19;17.13;;;9.30;;
64667;SDS011;51077;42.716;23.344;2024-03-23T07:56:45;17.00;;;9.03;;
64667;SDS011;51077;42.716;23.344;2024-03-23T07:59:10;13.50;;;9.07;;
64667;SDS011;51077;42.716;23.344;2024-03-23T08:01:36;13.30;;;8.67;;
64667;SDS011;51077;42.716;23.344;2024-03-23T08:04:01;12.47;;;8.03;;
64667;SDS011;51077;42.716;23.344;2024-03-23T08:06:27;13.83;;;8.77;;
64667;SDS011;51077;42.716;23.344;2024-03-23T08:08:54;14.07;;;8.73;;
64667;SDS011;51077;42.716;23.344;2024-03-23T08:13:53;13.00;;;7.90;;
64667;SDS011;51077;42.716;23.344;2024-03-23T08:16:19;13.30;;;8.05;;
64667;SDS011;51077;42.716;23.344;2024-03-23T08:18:45;15.83;;;8.10;;
64667;SDS011;51077;42.716;23.344;2024-03-23T08:21:11;13.43;;;8.23;;
64667;SDS011;51077;42.716;23.344;2024-03-23T08:23:37;11.30;;;7.70;;
64667;SDS011;51077;42.716;23.344;2024-03-23T08:26:03;14.93;;;7.95;;
64667;SDS011;51077;42.716;23.344;2024-03-23T08:28:31;13.20;;;8.05;;
64667;SDS011;51077;42.716;23.344;2024-03-23T08:30:57;11.50;;;7.85;;
64667;SDS011;51077;42.716;23.344;2024-03-23T08:33:26;12.82;;;7.50;;
64667;SDS011;51077;42.716;23.344;2024-03-23T08:38:24;10.55;;;8.07;;
64667;SDS011;51077;42.716;23.344;2024-03-23T08:41:23;11.30;;;7.55;;
64667;SDS011;51077;42.716;23.344;2024-03-23T08:43:41;13.38;;;7.97;;
64667;SDS011;51077;42.716;23.344;2024-03-23T08:46:08;10.90;;;7.80;;
64667;SDS011;51077;42.716;23.344;2024-03-23T08:48:35;14.20;;;8.00;;
64667;SDS011;51077;42.716;23.344;2024-03-23T08:53:28;13.57;;;8.02;;
64667;SDS011;51077;42.716;23.344;2024-03-23T08:55:55;17.10;;;9.13;;
64667;SDS011;51077;42.716;23.344;2024-03-23T08:58:21;11.57;;;8.32;;
64667;SDS011;51077;42.716;23.344;2024-03-23T09:00:49;15.45;;;7.95;;
64667;SDS011;51077;42.716;23.344;2024-03-23T09:03:15;13.82;;;8.55;;
64667;SDS011;51077;42.716;23.344;2024-03-23T09:05:41;14.73;;;8.43;;
64667;SDS011;51077;42.716;23.344;2024-03-23T09:08:07;11.83;;;8.27;;
64667;SDS011;51077;42.716;23.344;2024-03-23T09:10:38;13.50;;;10.07;;
64667;SDS011;51077;42.716;23.344;2024-03-23T09:13:03;13.43;;;9.38;;
64667;SDS011;51077;42.716;23.344;2024-03-23T09:15:29;14.20;;;9.07;;
64667;SDS011;51077;42.716;23.344;2024-03-23T09:17:54;13.03;;;9.90;;
64667;SDS011;51077;42.716;23.344;2024-03-23T09:20:20;17.10;;;10.40;;
64667;SDS011;51077;42.716;23.344;2024-03-23T09:22:45;19.10;;;11.03;;
64667;SDS011;51077;42.716;23.344;2024-03-23T09:25:13;14.00;;;10.57;;
64667;SDS011;51077;42.716;23.344;2024-03-23T09:27:38;16.90;;;10.60;;
64667;SDS011;51077;42.716;23.344;2024-03-23T09:30:04;16.37;;;11.23;;
64667;SDS011;51077;42.716;23.344;2024-03-23T09:32:30;15.35;;;10.95;;
64667;SDS011;51077;42.716;23.344;2024-03-23T09:34:55;13.67;;;10.30;;
64667;SDS011;51077;42.716;23.344;2024-03-23T09:37:21;18.73;;;11.00;;
64667;SDS011;51077;42.716;23.344;2024-03-23T09:39:46;16.30;;;10.40;;
64667;SDS011;51077;42.716;23.344;2024-03-23T09:42:12;14.27;;;9.73;;
64667;SDS011;51077;42.716;23.344;2024-03-23T09:44:37;13.80;;;8.77;;
64667;SDS011;51077;42.716;23.344;2024-03-23T09:47:03;12.87;;;8.70;;
64667;SDS011;51077;42.716;23.344;2024-03-23T09:49:29;12.67;;;9.40;;
64667;SDS011;51077;42.716;23.344;2024-03-23T09:51:54;13.82;;;9.20;;
64667;SDS011;51077;42.716;23.344;2024-03-23T09:54:21;15.52;;;7.93;;
64667;SDS011;51077;42.716;23.344;2024-03-23T09:56:47;12.03;;;8.73;;
64667;SDS011;51077;42.716;23.344;2024-03-23T09:59:12;12.53;;;8.37;;
64667;SDS011;51077;42.716;23.344;2024-03-23T10:01:38;13.97;;;8.20;;
64667;SDS011;51077;42.716;23.344;2024-03-23T10:04:03;11.10;;;7.63;;
64667;SDS011;51077;42.716;23.344;2024-03-23T10:06:29;10.57;;;7.17;;
64667;SDS011;51077;42.716;23.344;2024-03-23T10:08:54;11.70;;;6.87;;
64667;SDS011;51077;42.716;23.344;2024-03-23T10:11:20;12.83;;;7.17;;
64667;SDS011;51077;42.716;23.344;2024-03-23T10:13:46;9.67;;;6.57;;
64667;SDS011;51077;42.716;23.344;2024-03-23T10:16:12;10.55;;;7.03;;
64667;SDS011;51077;42.716;23.344;2024-03-23T10:21:11;12.80;;;6.33;;
64667;SDS011;51077;42.716;23.344;2024-03-23T10:23:43;11.10;;;7.53;;
64667;SDS011;51077;42.716;23.344;2024-03-23T10:26:20;9.73;;;6.80;;
64667;SDS011;51077;42.716;23.344;2024-03-23T10:28:57;11.18;;;6.32;;
64667;SDS011;51077;42.716;23.344;2024-03-23T10:31:30;9.82;;;6.30;;
64667;SDS011;51077;42.716;23.344;2024-03-23T10:33:56;6.93;;;5.82;;
64667;SDS011;51077;42.716;23.344;2024-03-23T10:36:22;11.43;;;6.43;;
64667;SDS011;51077;42.716;23.344;2024-03-23T10:38:49;7.57;;;5.50;;
64667;SDS011;51077;42.716;23.344;2024-03-23T10:41:17;8.57;;;5.33;;
64667;SDS011;51077;42.716;23.344;2024-03-23T10:43:44;9.13;;;6.33;;
64667;SDS011;51077;42.716;23.344;2024-03-23T10:46:11;9.07;;;5.80;;
64667;SDS011;51077;42.716;23.344;2024-03-23T10:48:37;8.97;;;5.50;;
64667;SDS011;51077;42.716;23.344;2024-03-23T10:51:03;9.53;;;5.47;;
64667;SDS011;51077;42.716;23.344;2024-03-23T10:53:29;9.07;;;5.30;;
64667;SDS011;51077;42.716;23.344;2024-03-23T10:55:58;7.50;;;4.77;;
64667;SDS011;51077;42.716;23.344;2024-03-23T10:58:46;7.60;;;5.13;;
64667;SDS011;51077;42.716;23.344;2024-03-23T11:01:12;9.53;;;5.40;;
64667;SDS011;51077;42.716;23.344;2024-03-23T11:03:39;8.43;;;4.90;;
64667;SDS011;51077;42.716;23.344;2024-03-23T11:06:09;6.73;;;4.57;;
64667;SDS011;51077;42.716;23.344;2024-03-23T11:08:35;9.43;;;5.30;;
64667;SDS011;51077;42.716;23.344;2024-03-23T11:11:16;7.63;;;4.73;;
64667;SDS011;51077;42.716;23.344;2024-03-23T11:13:44;6.90;;;4.60;;
64667;SDS011;51077;42.716;23.344;2024-03-23T11:16:17;7.13;;;4.60;;
64667;SDS011;51077;42.716;23.344;2024-03-23T11:18:48;7.40;;;5.07;;
64667;SDS011;51077;42.716;23.344;2024-03-23T11:24:25;6.97;;;4.50;;
64667;SDS011;51077;42.716;23.344;2024-03-23T11:26:51;8.00;;;4.57;;
64667;SDS011;51077;42.716;23.344;2024-03-23T11:29:16;10.37;;;4.90;;
64667;SDS011;51077;42.716;23.344;2024-03-23T11:31:49;9.27;;;4.60;;
64667;SDS011;51077;42.716;23.344;2024-03-23T11:34:16;7.97;;;3.90;;
64667;SDS011;51077;42.716;23.344;2024-03-23T11:36:42;8.17;;;4.47;;
64667;SDS011;51077;42.716;23.344;2024-03-23T11:39:15;11.43;;;5.07;;
64667;SDS011;51077;42.716;23.344;2024-03-23T11:41:48;7.43;;;4.30;;
64667;SDS011;51077;42.716;23.344;2024-03-23T11:44:15;9.77;;;4.17;;
64667;SDS011;51077;42.716;23.344;2024-03-23T11:46:45;8.90;;;4.70;;
64667;SDS011;51077;42.716;23.344;2024-03-23T11:49:21;10.10;;;4.43;;
64667;SDS011;51077;42.716;23.344;2024-03-23T11:51:48;6.43;;;4.00;;
64667;SDS011;51077;42.716;23.344;2024-03-23T11:54:14;6.97;;;4.50;;
64667;SDS011;51077;42.716;23.344;2024-03-23T11:56:39;7.80;;;3.83;;
64667;SDS011;51077;42.716;23.344;2024-03-23T11:59:06;7.30;;;3.60;;
64667;SDS011;51077;42.716;23.344;2024-03-23T12:01:31;6.23;;;4.00;;
64667;SDS011;51077;42.716;23.344;2024-03-23T12:03:57;7.43;;;4.40;;
64667;SDS011;51077;42.716;23.344;2024-03-23T12:06:22;7.90;;;4.20;;
64667;SDS011;51077;42.716;23.344;2024-03-23T12:08:48;6.03;;;4.30;;
64667;SDS011;51077;42.716;23.344;2024-03-23T12:11:15;6.67;;;3.83;;
64667;SDS011;51077;42.716;23.344;2024-03-23T12:13:42;5.93;;;3.80;;
64667;SDS011;51077;42.716;23.344;2024-03-23T12:18:37;8.87;;;3.70;;
64667;SDS011;51077;42.716;23.344;2024-03-23T12:21:03;5.73;;;3.60;;
64667;SDS011;51077;42.716;23.344;2024-03-23T12:23:29;8.67;;;4.00;;
64667;SDS011;51077;42.716;23.344;2024-03-23T12:25:54;16.60;;;5.07;;
64667;SDS011;51077;42.716;23.344;2024-03-23T12:28:20;12.07;;;4.47;;
64667;SDS011;51077;42.716;23.344;2024-03-23T12:30:45;10.17;;;4.30;;
64667;SDS011;51077;42.716;23.344;2024-03-23T12:33:11;10.43;;;3.97;;
64667;SDS011;51077;42.716;23.344;2024-03-23T12:35:36;8.63;;;4.17;;
64667;SDS011;51077;42.716;23.344;2024-03-23T12:38:02;8.23;;;3.70;;
64667;SDS011;51077;42.716;23.344;2024-03-23T12:40:27;10.83;;;4.40;;
64667;SDS011;51077;42.716;23.344;2024-03-23T12:42:53;7.70;;;4.60;;
64667;SDS011;51077;42.716;23.344;2024-03-23T12:45:19;8.17;;;3.83;;
64667;SDS011;51077;42.716;23.344;2024-03-23T12:47:44;6.90;;;3.47;;
64667;SDS011;51077;42.716;23.344;2024-03-23T12:50:10;7.00;;;3.43;;
64667;SDS011;51077;42.716;23.344;2024-03-23T12:52:36;7.17;;;3.60;;
64667;SDS011;51077;42.716;23.344;2024-03-23T12:55:02;6.30;;;3.70;;
64667;SDS011;51077;42.716;23.344;2024-03-23T12:57:30;6.67;;;4.10;;
64667;SDS011;51077;42.716;23.344;2024-03-23T12:59:57;7.57;;;3.93;;
64667;SDS011;51077;42.716;23.344;2024-03-23T13:02:23;6.13;;;3.57;;
64667;SDS011;51077;42.716;23.344;2024-03-23T13:04:51;7.50;;;4.33;;
64667;SDS011;51077;42.716;23.344;2024-03-23T13:07:18;6.40;;;3.10;;
64667;SDS011;51077;42.716;23.344;2024-03-23T13:09:44;6.73;;;3.03;;
64667;SDS011;51077;42.716;23.344;2024-03-23T13:12:10;6.67;;;3.23;;
64667;SDS011;51077;42.716;23.344;2024-03-23T13:14:39;5.90;;;3.00;;
64667;SDS011;51077;42.716;23.344;2024-03-23T13:17:05;6.87;;;2.63;;
64667;SDS011;51077;42.716;23.344;2024-03-23T13:19:31;5.60;;;3.00;;
64667;SDS011;51077;42.716;23.344;2024-03-23T13:21:57;4.03;;;2.23;;
64667;SDS011;51077;42.716;23.344;2024-03-23T13:24:24;4.77;;;2.50;;
64667;SDS011;51077;42.716;23.344;2024-03-23T13:26:53;4.17;;;2.43;;
64667;SDS011;51077;42.716;23.344;2024-03-23T13:29:19;4.10;;;2.60;;
64667;SDS011;51077;42.716;23.344;2024-03-23T13:31:46;3.73;;;2.40;;
64667;SDS011;51077;42.716;23.344;2024-03-23T13:34:12;3.90;;;2.30;;
64667;SDS011;51077;42.716;23.344;2024-03-23T13:36:40;4.40;;;2.40;;
64667;SDS011;51077;42.716;23.344;2024-03-23T13:39:09;3.73;;;2.00;;
64667;SDS011;51077;42.716;23.344;2024-03-23T13:41:41;4.33;;;2.17;;
64667;SDS011;51077;42.716;23.344;2024-03-23T13:44:09;3.37;;;2.00;;
64667;SDS011;51077;42.716;23.344;2024-03-23T13:46:36;3.35;;;1.83;;
64667;SDS011;51077;42.716;23.344;2024-03-23T13:49:02;4.63;;;2.50;;
64667;SDS011;51077;42.716;23.344;2024-03-23T13:51:28;3.40;;;1.83;;
64667;SDS011;51077;42.716;23.344;2024-03-23T13:53:53;3.30;;;1.97;;
64667;SDS011;51077;42.716;23.344;2024-03-23T13:56:20;3.63;;;1.85;;
64667;SDS011;51077;42.716;23.344;2024-03-23T13:58:45;3.95;;;1.30;;
64667;SDS011;51077;42.716;23.344;2024-03-23T14:01:15;2.38;;;1.42;;
64667;SDS011;51077;42.716;23.344;2024-03-23T14:03:41;4.30;;;1.73;;
64667;SDS011;51077;42.716;23.344;2024-03-23T14:06:08;4.25;;;1.70;;
64667;SDS011;51077;42.716;23.344;2024-03-23T14:08:36;3.28;;;1.67;;
64667;SDS011;51077;42.716;23.344;2024-03-23T14:11:06;4.53;;;1.35;;
64667;SDS011;51077;42.716;23.344;2024-03-23T14:13:33;3.03;;;1.70;;
64667;SDS011;51077;42.716;23.344;2024-03-23T14:15:59;2.83;;;1.50;;
64667;SDS011;51077;42.716;23.344;2024-03-23T14:18:25;3.80;;;1.57;;
64667;SDS011;51077;42.716;23.344;2024-03-23T14:21:00;4.63;;;1.40;;
64667;SDS011;51077;42.716;23.344;2024-03-23T14:23:30;2.97;;;1.45;;
64667;SDS011;51077;42.716;23.344;2024-03-23T14:25:59;3.60;;;1.45;;
64667;SDS011;51077;42.716;23.344;2024-03-23T14:28:24;2.70;;;1.70;;
64667;SDS011;51077;42.716;23.344;2024-03-23T14:30:50;3.10;;;1.50;;
64667;SDS011;51077;42.716;23.344;2024-03-23T14:33:17;3.60;;;1.40;;
64667;SDS011;51077;42.716;23.344;2024-03-23T14:35:43;2.88;;;1.20;;
64667;SDS011;51077;42.716;23.344;2024-03-23T14:38:16;3.30;;;1.23;;
64667;SDS011;51077;42.716;23.344;2024-03-23T14:40:42;2.47;;;1.30;;
64667;SDS011;51077;42.716;23.344;2024-03-23T14:43:07;2.90;;;1.30;;
64667;SDS011;51077;42.716;23.344;2024-03-23T14:45:32;2.63;;;1.43;;
64667;SDS011;51077;42.716;23.344;2024-03-23T14:47:58;3.20;;;1.27;;
64667;SDS011;51077;42.716;23.344;2024-03-23T14:50:24;3.37;;;1.30;;
64667;SDS011;51077;42.716;23.344;2024-03-23T14:52:49;3.60;;;1.40;;
64667;SDS011;51077;42.716;23.344;2024-03-23T14:55:16;3.80;;;1.80;;
64667;SDS011;51077;42.716;23.344;2024-03-23T14:57:42;3.03;;;1.20;;
64667;SDS011;51077;42.716;23.344;2024-03-23T15:00:07;3.77;;;1.57;;
64667;SDS011;51077;42.716;23.344;2024-03-23T15:02:36;3.42;;;1.42;;
64667;SDS011;51077;42.716;23.344;2024-03-23T15:05:02;4.72;;;1.60;;
64667;SDS011;51077;42.716;23.344;2024-03-23T15:07:30;3.67;;;1.73;;
64667;SDS011;51077;42.716;23.344;2024-03-23T15:09:56;5.78;;;2.13;;
64667;SDS011;51077;42.716;23.344;2024-03-23T15:12:21;3.47;;;2.10;;
64667;SDS011;51077;42.716;23.344;2024-03-23T15:14:47;4.20;;;1.90;;
64667;SDS011;51077;42.716;23.344;2024-03-23T15:17:12;4.23;;;2.30;;
64667;SDS011;51077;42.716;23.344;2024-03-23T15:19:38;3.57;;;1.90;;
64667;SDS011;51077;42.716;23.344;2024-03-23T15:22:03;3.87;;;2.03;;
64667;SDS011;51077;42.716;23.344;2024-03-23T15:24:30;5.28;;;2.00;;
64667;SDS011;51077;42.716;23.344;2024-03-23T15:26:56;3.97;;;2.20;;
64667;SDS011;51077;42.716;23.344;2024-03-23T15:29:22;4.40;;;1.97;;